createdAt,value
2018-10-12T00:02:06.946Z,12.19
2018-10-12T00:04:35.493Z,12.03
2018-10-12T00:07:04.052Z,12.01
2018-10-12T00:09:32.604Z,11.94
2018-10-12T00:12:01.224Z,11.95
2018-10-12T00:14:29.820Z,11.87
2018-10-12T00:16:58.484Z,11.75
2018-10-12T00:19:27.196Z,11.78
2018-10-12T00:21:55.820Z,11.77
2018-10-12T00:24:24.596Z,11.79
2018-10-12T00:26:53.201Z,11.76
2018-10-12T00:29:21.968Z,11.68
2018-10-12T00:31:50.532Z,11.65
2018-10-12T00:34:19.440Z,11.48
2018-10-12T00:37:05.128Z,11.60
2018-10-12T00:39:33.767Z,11.60
2018-10-12T00:42:02.357Z,11.61
2018-10-12T00:44:30.957Z,11.56
2018-10-12T00:46:59.515Z,11.55
2018-10-12T00:49:28.287Z,11.50
2018-10-12T00:51:56.904Z,11.50
2018-10-12T00:54:25.479Z,11.51
2018-10-12T00:56:54.037Z,11.52
2018-10-12T00:59:22.628Z,11.53
2018-10-12T01:01:51.156Z,11.52
2018-10-12T01:04:20.036Z,11.55
2018-10-12T01:06:48.678Z,11.49
2018-10-12T01:09:17.192Z,11.55
2018-10-12T01:11:45.740Z,11.41
2018-10-12T01:14:14.321Z,11.33
2018-10-12T01:16:42.882Z,11.32
2018-10-12T01:19:11.406Z,11.21
2018-10-12T01:21:48.420Z,11.19
2018-10-12T01:24:16.958Z,11.08
2018-10-12T01:26:45.503Z,11.02
2018-10-12T01:29:14.088Z,11.05
2018-10-12T01:31:42.633Z,11.07
2018-10-12T01:34:11.224Z,11.08
2018-10-12T01:36:39.764Z,11.08
2018-10-12T01:39:08.328Z,11.03
2018-10-12T01:41:36.876Z,10.96
2018-10-12T01:44:05.432Z,10.94
2018-10-12T01:46:33.972Z,10.74
2018-10-12T01:49:02.509Z,10.85
2018-10-12T01:51:31.065Z,10.79
2018-10-12T01:53:59.584Z,10.75
2018-10-12T01:56:28.120Z,10.76
2018-10-12T01:58:56.653Z,10.81
2018-10-12T02:01:25.212Z,10.84
2018-10-12T02:03:53.736Z,10.82
2018-10-12T02:06:22.271Z,10.69
2018-10-12T02:08:50.822Z,10.70
2018-10-12T02:11:19.375Z,10.71
2018-10-12T02:13:47.916Z,10.62
2018-10-12T02:16:16.444Z,10.61
2018-10-12T02:18:44.993Z,10.45
2018-10-12T02:21:13.689Z,10.41
2018-10-12T02:23:42.354Z,10.42
2018-10-12T02:26:10.888Z,10.42
2018-10-12T02:28:39.443Z,10.23
2018-10-12T02:31:08.010Z,10.35
2018-10-12T02:33:36.556Z,10.35
2018-10-12T02:36:05.139Z,10.32
2018-10-12T02:38:33.706Z,10.37
2018-10-12T02:41:02.613Z,10.37
2018-10-12T02:43:31.188Z,10.36
2018-10-12T02:45:59.761Z,10.38
2018-10-12T02:48:28.337Z,10.41
2018-10-12T02:50:56.927Z,10.43
2018-10-12T02:53:25.483Z,10.38
2018-10-12T02:55:54.124Z,10.41
2018-10-12T02:58:22.696Z,10.26
2018-10-12T03:00:51.355Z,10.25
2018-10-12T03:03:19.923Z,10.20
2018-10-12T03:05:48.535Z,10.19
2018-10-12T03:08:17.060Z,10.18
2018-10-12T03:10:45.688Z,10.20
2018-10-12T03:13:14.388Z,10.17
2018-10-12T03:15:43.203Z,10.17
2018-10-12T03:18:12.232Z,10.18
2018-10-12T03:20:41.008Z,10.13
2018-10-12T03:23:09.659Z,10.09
2018-10-12T03:25:38.186Z,10.09
2018-10-12T03:28:17.816Z,10.05
2018-10-12T03:30:46.439Z,10.01
2018-10-12T03:33:15.400Z,9.94
2018-10-12T03:35:44.264Z,9.90
2018-10-12T03:38:13.029Z,9.85
2018-10-12T03:40:41.758Z,9.86
2018-10-12T03:43:10.601Z,9.88
2018-10-12T03:45:39.459Z,9.85
2018-10-12T03:48:08.394Z,9.88
2018-10-12T03:50:37.207Z,9.79
2018-10-12T03:53:06.159Z,9.79
2018-10-12T03:55:34.748Z,9.86
2018-10-12T03:58:03.320Z,9.88
2018-10-12T04:00:31.862Z,9.84
2018-10-12T04:03:00.404Z,9.86
2018-10-12T04:05:28.943Z,9.92
2018-10-12T04:07:57.494Z,9.90
2018-10-12T04:10:26.019Z,9.88
2018-10-12T04:12:54.872Z,9.96
2018-10-12T04:15:23.771Z,9.88
2018-10-12T04:17:52.396Z,9.80
2018-10-12T04:20:20.932Z,9.80
2018-10-12T04:22:49.471Z,9.81
2018-10-12T04:25:17.988Z,9.80
2018-10-12T04:27:46.525Z,9.86
2018-10-12T04:30:15.084Z,9.85
2018-10-12T04:38:23.669Z,9.72
2018-10-12T04:41:04.264Z,9.67
2018-10-12T04:43:33.284Z,9.59
2018-10-12T04:46:03.639Z,9.51
2018-10-12T04:48:32.492Z,9.46
2018-10-12T04:51:01.374Z,9.45
2018-10-12T04:53:29.996Z,9.47
2018-10-12T04:55:58.628Z,9.45
2018-10-12T04:58:28.079Z,9.51
2018-10-12T05:00:56.659Z,9.44
2018-10-12T05:03:25.202Z,9.46
2018-10-12T05:05:53.753Z,9.53
2018-10-12T05:08:22.286Z,9.56
2018-10-12T05:10:50.858Z,9.59
2018-10-12T05:13:20.223Z,9.53
2018-10-12T05:15:48.763Z,9.52
2018-10-12T05:18:17.311Z,9.52
2018-10-12T05:20:46.028Z,9.44
2018-10-12T05:23:14.576Z,9.46
2018-10-12T05:25:43.414Z,9.38
2018-10-12T05:28:12.223Z,9.46
2018-10-12T05:30:40.800Z,9.49
2018-10-12T05:33:09.324Z,9.53
2018-10-12T05:35:37.907Z,9.60
2018-10-12T05:38:06.524Z,9.58
2018-10-12T05:40:35.118Z,9.58
2018-10-12T05:43:03.713Z,9.58
2018-10-12T05:45:32.280Z,9.59
2018-10-12T05:48:11.731Z,9.57
2018-10-12T05:50:40.396Z,9.59
2018-10-12T05:53:08.976Z,9.63
2018-10-12T05:55:37.560Z,9.63
2018-10-12T05:58:06.493Z,9.68
2018-10-12T06:00:35.061Z,9.71
2018-10-12T06:03:03.620Z,9.79
2018-10-12T06:05:32.152Z,9.79
2018-10-12T06:08:00.720Z,9.79
2018-10-12T06:10:29.257Z,9.85
2018-10-12T06:12:57.857Z,9.93
2018-10-12T06:15:26.622Z,9.95
2018-10-12T06:17:55.194Z,10.00
2018-10-12T06:20:23.768Z,10.00
2018-10-12T06:22:52.341Z,9.98
2018-10-12T06:25:20.875Z,10.05
2018-10-12T06:27:49.452Z,10.19
2018-10-12T06:30:18.241Z,10.09
2018-10-12T06:32:46.815Z,10.06
2018-10-12T06:35:15.435Z,10.13
2018-10-12T06:37:44.000Z,10.24
2018-10-12T06:40:12.543Z,10.37
2018-10-12T06:42:41.188Z,10.50
2018-10-12T06:45:09.760Z,10.55
2018-10-12T06:47:38.291Z,10.62
2018-10-12T06:50:07.085Z,10.67
2018-10-12T06:52:35.883Z,10.77
2018-10-12T06:55:04.574Z,10.94
2018-10-12T06:57:33.125Z,10.99
2018-10-12T07:00:01.749Z,11.05
2018-10-12T07:02:30.279Z,11.09
2018-10-12T07:04:58.868Z,11.28
2018-10-12T07:07:27.423Z,11.40
2018-10-12T07:09:55.960Z,11.57
2018-10-12T07:12:24.525Z,11.71
2018-10-12T07:14:53.061Z,11.74
2018-10-12T10:59:57.616Z,25.25
2018-10-12T11:02:26.169Z,25.01
2018-10-12T11:04:54.697Z,25.01
2018-10-12T11:07:23.256Z,25.15
2018-10-12T11:09:51.780Z,25.03
2018-10-12T11:12:20.421Z,24.92
2018-10-12T11:14:48.903Z,24.79
2018-10-12T11:17:17.464Z,24.50
2018-10-12T11:19:46.037Z,23.98
2018-10-12T11:22:15.967Z,24.20
2018-10-12T11:24:44.485Z,24.09
2018-10-12T11:27:13.077Z,24.37
2018-10-12T11:29:41.607Z,24.06
2018-10-12T11:32:10.144Z,24.11
2018-10-12T11:34:38.672Z,24.10
2018-10-12T11:37:07.273Z,24.12
2018-10-12T11:39:47.803Z,24.38
2018-10-12T11:42:16.451Z,24.01
2018-10-12T11:44:45.054Z,23.99
2018-10-12T11:47:13.569Z,24.32
2018-10-12T11:49:42.120Z,24.35
2018-10-12T11:52:10.733Z,24.22
2018-10-12T11:54:39.227Z,24.30
2018-10-12T11:57:07.780Z,24.22
2018-10-12T11:59:36.322Z,24.22
2018-10-12T12:02:04.928Z,24.11
2018-10-12T12:04:33.435Z,24.44
2018-10-12T12:07:01.968Z,24.54
2018-10-12T12:09:30.517Z,24.63
2018-10-12T12:11:59.057Z,24.72
2018-10-12T12:14:27.604Z,24.72
2018-10-12T12:16:56.180Z,24.65
2018-10-12T12:19:24.798Z,24.66
2018-10-12T12:21:53.316Z,24.79
2018-10-12T12:24:21.844Z,24.71
2018-10-12T12:26:50.371Z,24.47
2018-10-12T12:29:18.924Z,24.59
2018-10-12T12:31:47.499Z,24.70
2018-10-12T12:34:16.104Z,24.74
2018-10-12T12:36:44.672Z,24.87
2018-10-12T12:39:13.227Z,24.82
2018-10-12T12:41:41.832Z,24.57
2018-10-12T12:44:10.512Z,24.64
2018-10-12T12:46:39.052Z,24.73
2018-10-12T12:49:08.132Z,24.56
2018-10-12T12:51:36.304Z,24.63
2018-10-12T12:54:04.840Z,24.65
2018-10-12T12:56:33.417Z,24.91
2018-10-12T12:59:01.977Z,24.85
2018-10-12T13:01:30.512Z,24.97
2018-10-12T13:03:59.044Z,24.97
2018-10-12T13:06:27.659Z,25.02
2018-10-12T13:08:56.220Z,24.97
2018-10-12T13:11:24.760Z,25.08
2018-10-12T13:13:53.317Z,25.07
2018-10-12T13:16:21.855Z,24.87
2018-10-12T13:18:50.383Z,24.91
2018-10-12T13:21:18.909Z,24.96
2018-10-12T13:23:47.443Z,25.19
2018-10-12T13:26:16.171Z,25.21
2018-10-12T13:28:44.570Z,25.20
2018-10-12T13:31:13.237Z,25.36
2018-10-12T13:33:41.788Z,25.19
2018-10-12T13:36:10.368Z,25.18
2018-10-12T13:38:38.905Z,25.44
2018-10-12T13:41:07.671Z,25.47
2018-10-12T13:43:36.276Z,25.33
2018-10-12T13:46:04.830Z,25.19
2018-10-12T13:48:33.372Z,25.20
2018-10-12T13:51:01.913Z,25.20
2018-10-12T13:53:30.482Z,25.00
2018-10-12T13:55:59.204Z,24.99
2018-10-12T13:58:27.740Z,24.99
2018-10-12T14:00:56.272Z,24.88
2018-10-12T14:03:24.811Z,24.73
2018-10-12T14:05:53.403Z,24.71
2018-10-12T14:08:21.950Z,24.78
2018-10-12T14:10:50.452Z,24.89
2018-10-12T14:13:19.002Z,24.87
2018-10-12T14:15:47.549Z,24.96
2018-10-12T14:18:16.169Z,24.92
2018-10-12T14:20:44.684Z,25.04
2018-10-12T14:23:13.240Z,25.00
2018-10-12T14:25:41.784Z,24.96
2018-10-12T14:28:10.491Z,24.76
2018-10-12T14:30:39.061Z,24.62
2018-10-12T14:33:08.076Z,24.71
2018-10-12T14:35:36.777Z,24.78
2018-10-12T14:38:05.387Z,24.73
2018-10-12T14:40:33.929Z,24.71
2018-10-12T14:43:02.498Z,24.53
2018-10-12T14:45:31.081Z,24.61
2018-10-12T14:47:59.683Z,24.65
2018-10-12T14:50:28.260Z,24.65
2018-10-12T14:52:56.887Z,24.65
2018-10-12T14:55:25.410Z,24.69
2018-10-12T14:57:53.956Z,24.78
2018-10-12T15:00:22.496Z,24.60
2018-10-12T15:02:51.027Z,24.62
2018-10-12T15:05:19.620Z,24.55
2018-10-12T15:07:48.168Z,24.50
2018-10-12T15:10:16.820Z,24.46
2018-10-12T15:12:45.375Z,24.36
2018-10-12T15:15:20.010Z,24.24
2018-10-12T15:17:49.632Z,24.17
2018-10-12T15:20:18.815Z,24.02
2018-10-12T15:22:47.395Z,24.05
2018-10-12T15:25:15.951Z,23.94
2018-10-12T15:27:44.688Z,23.72
2018-10-12T15:30:13.709Z,23.59
2018-10-12T15:32:42.296Z,23.23
2018-10-12T15:35:11.179Z,23.12
2018-10-12T15:37:40.543Z,22.91
2018-10-12T15:40:09.380Z,22.76
2018-10-12T15:42:38.092Z,22.69
2018-10-12T15:45:06.653Z,22.38
2018-10-12T15:47:35.276Z,22.25
2018-10-12T15:50:03.882Z,22.18
2018-10-12T15:52:32.444Z,22.00
2018-10-12T15:55:01.036Z,21.98
2018-10-12T15:57:30.789Z,21.88
2018-10-12T15:59:59.327Z,21.64
2018-10-12T16:02:27.904Z,21.63
2018-10-12T16:04:56.436Z,21.45
2018-10-12T16:07:24.996Z,21.42
2018-10-12T16:09:54.288Z,21.35
2018-10-12T16:12:23.542Z,21.25
2018-10-12T16:14:52.221Z,21.06
2018-10-12T18:31:28.336Z,17.32
2018-10-12T18:33:56.907Z,17.31
2018-10-12T18:36:25.477Z,17.31
2018-10-12T18:38:54.075Z,17.28
2018-10-12T18:41:22.668Z,17.22
2018-10-12T18:43:51.264Z,17.20
2018-10-12T18:46:19.815Z,17.07
2018-10-12T18:48:48.729Z,17.13
2018-10-12T18:51:17.328Z,17.04
2018-10-12T18:53:45.884Z,16.93
2018-10-12T18:56:14.467Z,16.87
2018-10-12T18:58:43.062Z,16.75
2018-10-12T19:01:11.640Z,16.83
2018-10-12T19:03:41.105Z,16.83
2018-10-12T19:06:09.832Z,16.83
2018-10-12T19:08:38.444Z,16.85
2018-10-12T19:11:07.004Z,16.80
2018-10-12T19:13:35.573Z,16.68
2018-10-12T19:16:23.328Z,16.69
2018-10-12T19:18:51.912Z,16.52
2018-10-12T19:21:20.453Z,16.45
2018-10-12T19:23:49.066Z,16.41
2018-10-12T19:26:17.564Z,16.27
2018-10-12T19:28:46.362Z,16.24
2018-10-12T19:31:14.987Z,16.20
2018-10-12T19:33:43.529Z,16.14
2018-10-12T19:36:12.068Z,16.05
2018-10-12T19:38:40.640Z,15.93
2018-10-12T19:41:09.196Z,15.90
2018-10-12T19:43:37.764Z,15.76
2018-10-12T19:46:06.329Z,15.84
2018-10-12T19:48:34.872Z,15.75
2018-10-12T19:51:03.436Z,15.74
2018-10-12T19:53:31.984Z,15.75
2018-10-12T19:56:00.552Z,15.70
2018-10-12T19:58:29.123Z,15.75
2018-10-12T20:00:57.799Z,15.72
2018-10-12T20:03:27.111Z,15.63
2018-10-12T20:05:55.947Z,15.58
2018-10-12T20:08:24.998Z,15.40
2018-10-12T20:10:53.752Z,15.36
2018-10-12T20:13:22.336Z,15.29
2018-10-12T20:15:50.944Z,15.25
2018-10-12T20:18:19.509Z,15.38
2018-10-12T20:20:48.104Z,15.28
2018-10-12T20:23:16.649Z,15.24
2018-10-12T20:25:45.249Z,15.20
2018-10-12T20:28:13.805Z,15.20
2018-10-12T20:30:42.475Z,15.12
2018-10-12T20:33:11.060Z,15.20
2018-10-12T20:35:39.600Z,15.07
2018-10-12T20:38:08.444Z,14.90
2018-10-12T20:40:36.985Z,14.79
2018-10-12T20:43:05.761Z,14.65
2018-10-12T20:45:34.595Z,14.67
2018-10-12T20:48:03.140Z,14.62
2018-10-12T20:50:31.702Z,14.65
2018-10-12T20:53:00.257Z,14.59
2018-10-12T20:55:28.820Z,14.52
2018-10-12T20:57:57.418Z,14.52
2018-10-12T21:00:26.022Z,14.47
2018-10-12T21:02:54.556Z,14.48
2018-10-12T21:05:23.125Z,14.52
2018-10-12T21:07:51.647Z,14.52
2018-10-12T21:10:20.243Z,14.42
2018-10-12T21:12:48.793Z,14.37
2018-10-12T21:15:17.319Z,14.37
2018-10-12T21:17:45.905Z,14.33
2018-10-12T21:20:14.469Z,14.32
2018-10-12T21:22:43.050Z,14.24
2018-10-12T21:25:11.580Z,14.10
2018-10-12T21:27:40.147Z,14.09
2018-10-12T21:30:08.747Z,14.07
2018-10-12T21:32:37.296Z,13.93
2018-10-12T21:35:05.860Z,13.92
2018-10-12T21:37:34.460Z,13.83
2018-10-12T21:40:03.028Z,13.84
2018-10-12T21:42:31.553Z,13.94
2018-10-12T21:45:00.105Z,14.02
2018-10-12T21:47:28.638Z,14.01
2018-10-12T21:49:57.224Z,13.85
2018-10-12T21:52:25.759Z,13.79
2018-10-12T21:54:54.302Z,13.75
2018-10-12T21:57:22.852Z,13.70
2018-10-12T21:59:51.413Z,13.66
2018-10-12T22:02:20.838Z,13.42
2018-10-12T22:04:49.419Z,13.37
2018-10-12T22:07:18.022Z,13.32
2018-10-12T22:09:46.584Z,13.36
2018-10-12T22:12:15.129Z,13.38
2018-10-12T22:14:43.784Z,13.46
